sensor_id;sensor_type;location;lat;lon;timestamp;pressure;altitude;pressure_sealevel;temperature;humidity
21574;BME280;10948;48.706;9.258;2023-03-03T00:00:56;97980.69;;;2.82;100.00
21574;BME280;10948;48.706;9.258;2023-03-03T00:03:22;97984.63;;;2.61;100.00
21574;BME280;10948;48.706;9.258;2023-03-03T00:05:48;97985.72;;;2.85;100.00
21574;BME280;10948;48.706;9.258;2023-03-03T00:08:14;97986.94;;;2.72;100.00
21574;BME280;10948;48.706;9.258;2023-03-03T00:10:39;97991.91;;;2.78;100.00
21574;BME280;10948;48.706;9.258;2023-03-03T00:13:18;97985.34;;;2.68;100.00
21574;BME280;10948;48.706;9.258;2023-03-03T00:15:44;97989.88;;;2.58;100.00
21574;BME280;10948;48.706;9.258;2023-03-03T00:20:47;97986.94;;;2.72;100.00
21574;BME280;10948;48.706;9.258;2023-03-03T00:25:48;97988.28;;;2.18;100.00
21574;BME280;10948;48.706;9.258;2023-03-03T00:30:42;98000.47;;;2.10;100.00
21574;BME280;10948;48.706;9.258;2023-03-03T00:35:44;97995.69;;;1.95;100.00
21574;BME280;10948;48.706;9.258;2023-03-03T00:38:13;97999.13;;;1.94;100.00
21574;BME280;10948;48.706;9.258;2023-03-03T00:40:41;97988.09;;;1.90;100.00
21574;BME280;10948;48.706;9.258;2023-03-03T00:43:25;97998.97;;;1.63;100.00
21574;BME280;10948;48.706;9.258;2023-03-03T00:45:56;97997.19;;;1.65;100.00
21574;BME280;10948;48.706;9.258;2023-03-03T00:48:22;98000.13;;;1.49;100.00
21574;BME280;10948;48.706;9.258;2023-03-03T00:50:48;97994.09;;;1.51;100.00
21574;BME280;10948;48.706;9.258;2023-03-03T00:53:15;97994.88;;;1.55;100.00
21574;BME280;10948;48.706;9.258;2023-03-03T00:55:41;97986.63;;;1.41;100.00
21574;BME280;10948;48.706;9.258;2023-03-03T00:58:06;97995.19;;;1.40;100.00
21574;BME280;10948;48.706;9.258;2023-03-03T01:00:32;97995.47;;;1.25;100.00
21574;BME280;10948;48.706;9.258;2023-03-03T01:02:59;97993.75;;;1.27;100.00
21574;BME280;10948;48.706;9.258;2023-03-03T01:05:25;97994.78;;;1.17;100.00
21574;BME280;10948;48.706;9.258;2023-03-03T01:07:51;97990.88;;;0.99;100.00
21574;BME280;10948;48.706;9.258;2023-03-03T01:10:16;97994.75;;;1.20;100.00
21574;BME280;10948;48.706;9.258;2023-03-03T01:12:41;97992.47;;;1.05;100.00
21574;BME280;10948;48.706;9.258;2023-03-03T01:15:07;97993.75;;;0.83;100.00
21574;BME280;10948;48.706;9.258;2023-03-03T01:17:33;97984.63;;;1.12;100.00
21574;BME280;10948;48.706;9.258;2023-03-03T01:19:59;97984.88;;;0.99;100.00
21574;BME280;10948;48.706;9.258;2023-03-03T01:22:24;97988.41;;;0.95;100.00
21574;BME280;10948;48.706;9.258;2023-03-03T01:24:50;97985.75;;;0.98;100.00
21574;BME280;10948;48.706;9.258;2023-03-03T01:27:15;97987.56;;;0.93;100.00
21574;BME280;10948;48.706;9.258;2023-03-03T01:29:41;97989.38;;;0.88;100.00
21574;BME280;10948;48.706;9.258;2023-03-03T01:32:06;97992.94;;;0.81;100.00
21574;BME280;10948;48.706;9.258;2023-03-03T01:34:31;97983.50;;;0.81;100.00
21574;BME280;10948;48.706;9.258;2023-03-03T01:36:56;97991.00;;;0.92;100.00
21574;BME280;10948;48.706;9.258;2023-03-03T01:39:21;97991.41;;;0.71;100.00
21574;BME280;10948;48.706;9.258;2023-03-03T01:41:47;97995.78;;;1.10;100.00
21574;BME280;10948;48.706;9.258;2023-03-03T01:44:15;97988.69;;;0.80;100.00
21574;BME280;10948;48.706;9.258;2023-03-03T01:46:47;97984.97;;;0.49;100.00
21574;BME280;10948;48.706;9.258;2023-03-03T01:49:20;97993.38;;;0.55;100.00
21574;BME280;10948;48.706;9.258;2023-03-03T01:51:48;97987.44;;;0.99;100.00
21574;BME280;10948;48.706;9.258;2023-03-03T01:54:19;97993.38;;;0.55;100.00
21574;BME280;10948;48.706;9.258;2023-03-03T01:56:45;97985.19;;;0.84;100.00
21574;BME280;10948;48.706;9.258;2023-03-03T01:59:17;97990.03;;;0.52;100.00
21574;BME280;10948;48.706;9.258;2023-03-03T02:01:44;97983.44;;;0.39;100.00
21574;BME280;10948;48.706;9.258;2023-03-03T02:04:11;97987.03;;;0.29;100.00
21574;BME280;10948;48.706;9.258;2023-03-03T02:06:37;97979.44;;;0.24;100.00
21574;BME280;10948;48.706;9.258;2023-03-03T02:09:12;97977.84;;;0.16;100.00
21574;BME280;10948;48.706;9.258;2023-03-03T02:11:40;97974.31;;;0.23;100.00
21574;BME280;10948;48.706;9.258;2023-03-03T02:14:07;97975.09;;;0.28;100.00
21574;BME280;10948;48.706;9.258;2023-03-03T02:16:32;97966.72;;;0.18;100.00
21574;BME280;10948;48.706;9.258;2023-03-03T02:18:57;97967.44;;;0.28;100.00
21574;BME280;10948;48.706;9.258;2023-03-03T02:21:23;97965.41;;;-0.07;100.00
21574;BME280;10948;48.706;9.258;2023-03-03T02:24:13;97959.31;;;0.02;100.00
21574;BME280;10948;48.706;9.258;2023-03-03T02:26:40;97957.41;;;0.14;100.00
21574;BME280;10948;48.706;9.258;2023-03-03T02:29:06;97956.81;;;-0.01;100.00
21574;BME280;10948;48.706;9.258;2023-03-03T02:31:33;97961.97;;;-0.04;100.00
21574;BME280;10948;48.706;9.258;2023-03-03T02:33:58;97955.97;;;0.00;100.00
21574;BME280;10948;48.706;9.258;2023-03-03T02:36:28;97958.34;;;0.10;100.00
21574;BME280;10948;48.706;9.258;2023-03-03T02:38:58;97960.28;;;-0.05;100.00
21574;BME280;10948;48.706;9.258;2023-03-03T02:41:28;97963.66;;;-0.03;100.00
21574;BME280;10948;48.706;9.258;2023-03-03T02:43:59;97961.88;;;0.02;100.00
21574;BME280;10948;48.706;9.258;2023-03-03T02:46:25;97965.44;;;-0.08;100.00
21574;BME280;10948;48.706;9.258;2023-03-03T02:48:51;97954.94;;;0.10;100.00
21574;BME280;10948;48.706;9.258;2023-03-03T02:51:16;97963.31;;;0.18;100.00
21574;BME280;10948;48.706;9.258;2023-03-03T02:53:41;97963.41;;;0.12;100.00
21574;BME280;10948;48.706;9.258;2023-03-03T02:56:07;97965.00;;;0.19;100.00
21574;BME280;10948;48.706;9.258;2023-03-03T02:58:33;97968.31;;;0.27;100.00
21574;BME280;10948;48.706;9.258;2023-03-03T03:00:59;97973.06;;;0.48;100.00
21574;BME280;10948;48.706;9.258;2023-03-03T03:03:24;97958.88;;;0.76;100.00
21574;BME280;10948;48.706;9.258;2023-03-03T03:05:49;97962.31;;;0.75;100.00
21574;BME280;10948;48.706;9.258;2023-03-03T03:08:14;97967.25;;;0.84;100.00
21574;BME280;10948;48.706;9.258;2023-03-03T03:10:39;97964.88;;;0.75;100.00
21574;BME280;10948;48.706;9.258;2023-03-03T03:13:05;97971.47;;;0.88;100.00
21574;BME280;10948;48.706;9.258;2023-03-03T03:15:30;97972.44;;;0.81;100.00
21574;BME280;10948;48.706;9.258;2023-03-03T03:17:55;97963.78;;;0.88;100.00
21574;BME280;10948;48.706;9.258;2023-03-03T03:20:20;97965.91;;;1.09;100.00
21574;BME280;10948;48.706;9.258;2023-03-03T03:22:46;97968.72;;;0.97;100.00
21574;BME280;10948;48.706;9.258;2023-03-03T03:25:11;97962.63;;;1.02;100.00
21574;BME280;10948;48.706;9.258;2023-03-03T03:27:36;97965.16;;;1.04;100.00
21574;BME280;10948;48.706;9.258;2023-03-03T03:30:02;97969.16;;;1.17;100.00
21574;BME280;10948;48.706;9.258;2023-03-03T03:32:27;97967.78;;;1.42;100.00
21574;BME280;10948;48.706;9.258;2023-03-03T03:34:52;97967.50;;;1.14;100.00
21574;BME280;10948;48.706;9.258;2023-03-03T03:37:17;97970.81;;;1.21;100.00
21574;BME280;10948;48.706;9.258;2023-03-03T03:39:43;97976.53;;;1.32;100.00
21574;BME280;10948;48.706;9.258;2023-03-03T03:42:08;97968.31;;;1.57;100.00
21574;BME280;10948;48.706;9.258;2023-03-03T03:44:33;97971.63;;;1.23;100.00
21574;BME280;10948;48.706;9.258;2023-03-03T03:46:59;97971.06;;;1.48;100.00
21574;BME280;10948;48.706;9.258;2023-03-03T03:49:24;97970.19;;;1.49;100.00
21574;BME280;10948;48.706;9.258;2023-03-03T03:51:49;97964.56;;;1.34;100.00
21574;BME280;10948;48.706;9.258;2023-03-03T03:54:14;97969.69;;;1.72;100.00
21574;BME280;10948;48.706;9.258;2023-03-03T03:56:40;97965.53;;;1.68;100.00
21574;BME280;10948;48.706;9.258;2023-03-03T03:59:06;97972.19;;;1.76;100.00
21574;BME280;10948;48.706;9.258;2023-03-03T04:01:31;97966.53;;;1.61;100.00
21574;BME280;10948;48.706;9.258;2023-03-03T04:03:56;97973.66;;;1.85;100.00
21574;BME280;10948;48.706;9.258;2023-03-03T04:06:22;97974.81;;;1.72;100.00
21574;BME280;10948;48.706;9.258;2023-03-03T04:08:47;97975.22;;;1.92;100.00
21574;BME280;10948;48.706;9.258;2023-03-03T04:11:12;97969.53;;;1.79;100.00
21574;BME280;10948;48.706;9.258;2023-03-03T04:13:37;97967.41;;;1.60;100.00
21574;BME280;10948;48.706;9.258;2023-03-03T04:16:03;97973.97;;;1.73;100.00
21574;BME280;10948;48.706;9.258;2023-03-03T04:18:28;97973.09;;;1.72;100.00
21574;BME280;10948;48.706;9.258;2023-03-03T04:20:53;97984.41;;;1.64;100.00
21574;BME280;10948;48.706;9.258;2023-03-03T04:23:19;97980.97;;;1.65;100.00
21574;BME280;10948;48.706;9.258;2023-03-03T04:25:45;97978.34;;;1.68;100.00
21574;BME280;10948;48.706;9.258;2023-03-03T04:28:10;97978.75;;;1.88;100.00
21574;BME280;10948;48.706;9.258;2023-03-03T04:30:35;97977.47;;;1.67;100.00
21574;BME280;10948;48.706;9.258;2023-03-03T04:33:01;97978.25;;;2.09;100.00
21574;BME280;10948;48.706;9.258;2023-03-03T04:35:26;97980.16;;;2.01;100.00
21574;BME280;10948;48.706;9.258;2023-03-03T04:37:51;97981.56;;;1.77;100.00
21574;BME280;10948;48.706;9.258;2023-03-03T04:40:16;97982.31;;;1.81;100.00
21574;BME280;10948;48.706;9.258;2023-03-03T04:42:42;97987.31;;;1.87;100.00
21574;BME280;10948;48.706;9.258;2023-03-03T04:45:07;97984.44;;;2.00;100.00
21574;BME280;10948;48.706;9.258;2023-03-03T04:47:33;97988.03;;;1.92;100.00
21574;BME280;10948;48.706;9.258;2023-03-03T04:49:58;97987.59;;;1.75;100.00
21574;BME280;10948;48.706;9.258;2023-03-03T04:52:24;97985.81;;;1.77;100.00
21574;BME280;10948;48.706;9.258;2023-03-03T04:54:50;97990.66;;;1.90;100.00
21574;BME280;10948;48.706;9.258;2023-03-03T04:57:15;97989.19;;;1.79;100.00
21574;BME280;10948;48.706;9.258;2023-03-03T04:59:40;97990.66;;;1.90;100.00
21574;BME280;10948;48.706;9.258;2023-03-03T05:02:05;97997.22;;;2.02;100.00
21574;BME280;10948;48.706;9.258;2023-03-03T05:04:31;97996.38;;;2.01;100.00
21574;BME280;10948;48.706;9.258;2023-03-03T05:06:57;97997.88;;;2.11;100.00
21574;BME280;10948;48.706;9.258;2023-03-03T05:09:22;97998.50;;;2.21;100.00
21574;BME280;10948;48.706;9.258;2023-03-03T05:11:47;98002.59;;;2.28;100.00
21574;BME280;10948;48.706;9.258;2023-03-03T05:14:14;98001.22;;;2.13;100.00
21574;BME280;10948;48.706;9.258;2023-03-03T05:16:39;98004.03;;;2.03;100.00
21574;BME280;10948;48.706;9.258;2023-03-03T05:19:04;98010.69;;;2.11;100.00
21574;BME280;10948;48.706;9.258;2023-03-03T05:21:29;98009.41;;;2.30;100.00
21574;BME280;10948;48.706;9.258;2023-03-03T05:23:55;97999.75;;;2.40;100.00
21574;BME280;10948;48.706;9.258;2023-03-03T05:26:20;98005.69;;;2.07;100.00
21574;BME280;10948;48.706;9.258;2023-03-03T05:28:46;98007.41;;;2.05;100.00
21574;BME280;10948;48.706;9.258;2023-03-03T05:31:11;98002.38;;;2.00;100.00
21574;BME280;10948;48.706;9.258;2023-03-03T05:33:36;98009.25;;;2.00;100.00
21574;BME280;10948;48.706;9.258;2023-03-03T05:36:02;98010.88;;;2.04;100.00
21574;BME280;10948;48.706;9.258;2023-03-03T05:38:27;98008.06;;;2.14;100.00
21574;BME280;10948;48.706;9.258;2023-03-03T05:40:52;98009.94;;;2.08;100.00
21574;BME280;10948;48.706;9.258;2023-03-03T05:43:18;98016.50;;;2.19;100.00
21574;BME280;10948;48.706;9.258;2023-03-03T05:45:44;98014.22;;;2.06;100.00
21574;BME280;10948;48.706;9.258;2023-03-03T05:48:09;98018.44;;;2.08;100.00
21574;BME280;10948;48.706;9.258;2023-03-03T05:50:34;98020.00;;;2.15;100.00
21574;BME280;10948;48.706;9.258;2023-03-03T05:53:00;98025.84;;;2.22;100.00
21574;BME280;10948;48.706;9.258;2023-03-03T05:55:25;98024.22;;;2.18;100.00
21574;BME280;10948;48.706;9.258;2023-03-03T05:57:50;98026.47;;;2.31;100.00
21574;BME280;10948;48.706;9.258;2023-03-03T06:00:15;98027.81;;;2.46;100.00
21574;BME280;10948;48.706;9.258;2023-03-03T06:02:41;98024.56;;;2.39;100.00
21574;BME280;10948;48.706;9.258;2023-03-03T06:05:07;98030.56;;;2.40;100.00
21574;BME280;10948;48.706;9.258;2023-03-03T06:07:32;98022.13;;;2.35;100.00
21574;BME280;10948;48.706;9.258;2023-03-03T06:09:58;98026.88;;;2.50;100.00
21574;BME280;10948;48.706;9.258;2023-03-03T06:12:23;98039.22;;;2.36;100.00
21574;BME280;10948;48.706;9.258;2023-03-03T06:14:48;98035.59;;;2.43;100.00
21574;BME280;10948;48.706;9.258;2023-03-03T06:17:14;98034.94;;;2.36;100.00
21574;BME280;10948;48.706;9.258;2023-03-03T06:19:39;98036.31;;;2.49;100.00
21574;BME280;10948;48.706;9.258;2023-03-03T06:22:06;98043.19;;;2.47;100.00
21574;BME280;10948;48.706;9.258;2023-03-03T06:24:31;98039.13;;;2.39;100.00
21574;BME280;10948;48.706;9.258;2023-03-03T06:26:57;98041.47;;;2.49;100.00
21574;BME280;10948;48.706;9.258;2023-03-03T06:29:22;98044.59;;;2.60;100.00
21574;BME280;10948;48.706;9.258;2023-03-03T06:31:47;98047.88;;;2.67;100.00
21574;BME280;10948;48.706;9.258;2023-03-03T06:34:12;98049.09;;;2.51;100.00
21574;BME280;10948;48.706;9.258;2023-03-03T06:36:38;98049.56;;;2.68;100.00
21574;BME280;10948;48.706;9.258;2023-03-03T06:39:03;98055.50;;;2.70;100.00
21574;BME280;10948;48.706;9.258;2023-03-03T06:41:28;98058.78;;;2.75;100.00
21574;BME280;10948;48.706;9.258;2023-03-03T06:43:53;98064.94;;;2.69;100.00
21574;BME280;10948;48.706;9.258;2023-03-03T06:46:19;98063.63;;;2.87;100.00
21574;BME280;10948;48.706;9.258;2023-03-03T06:48:44;98064.34;;;2.92;100.00
21574;BME280;10948;48.706;9.258;2023-03-03T06:51:15;98068.50;;;2.97;100.00
21574;BME280;10948;48.706;9.258;2023-03-03T06:53:44;98069.59;;;2.87;100.00
21574;BME280;10948;48.706;9.258;2023-03-03T06:56:09;98070.47;;;2.88;100.00
21574;BME280;10948;48.706;9.258;2023-03-03T06:58:35;98068.91;;;3.14;100.00
21574;BME280;10948;48.706;9.258;2023-03-03T07:01:04;98070.84;;;3.05;100.00
21574;BME280;10948;48.706;9.258;2023-03-03T07:03:37;98078.81;;;2.96;100.00
21574;BME280;10948;48.706;9.258;2023-03-03T07:06:07;98077.03;;;2.98;100.00
21574;BME280;10948;48.706;9.258;2023-03-03T07:08:32;98079.94;;;3.18;100.00
21574;BME280;10948;48.706;9.258;2023-03-03T07:11:00;98082.19;;;3.30;100.00
21574;BME280;10948;48.706;9.258;2023-03-03T07:13:30;98092.97;;;3.44;100.00
21574;BME280;10948;48.706;9.258;2023-03-03T07:15:58;98090.38;;;3.44;100.00
21574;BME280;10948;48.706;9.258;2023-03-03T07:23:38;98100.50;;;3.82;100.00
21574;BME280;10948;48.706;9.258;2023-03-03T07:26:29;98090.25;;;3.79;100.00
21574;BME280;10948;48.706;9.258;2023-03-03T07:29:03;98100.88;;;3.99;100.00
21574;BME280;10948;48.706;9.258;2023-03-03T07:31:38;98101.16;;;4.17;100.00
21574;BME280;10948;48.706;9.258;2023-03-03T07:34:21;98096.13;;;4.42;100.00
21574;BME280;10948;48.706;9.258;2023-03-03T07:36:47;98095.91;;;4.49;100.00
21574;BME280;10948;48.706;9.258;2023-03-03T07:44:41;98095.28;;;4.67;100.00
21574;BME280;10948;48.706;9.258;2023-03-03T07:49:51;98091.09;;;4.91;100.00
21574;BME280;10948;48.706;9.258;2023-03-03T07:52:23;98099.22;;;5.04;100.00
21574;BME280;10948;48.706;9.258;2023-03-03T07:54:49;98098.78;;;5.42;100.00
21574;BME280;10948;48.706;9.258;2023-03-03T07:57:58;98098.16;;;5.60;98.78
21574;BME280;10948;48.706;9.258;2023-03-03T08:05:23;98101.59;;;6.74;88.63
21574;BME280;10948;48.706;9.258;2023-03-03T08:07:51;98098.34;;;6.69;87.24
21574;BME280;10948;48.706;9.258;2023-03-03T08:10:35;98107.06;;;6.67;87.71
21574;BME280;10948;48.706;9.258;2023-03-03T08:13:07;98096.91;;;7.65;82.91
21574;BME280;10948;48.706;9.258;2023-03-03T08:15:35;98103.22;;;7.78;79.52
21574;BME280;10948;48.706;9.258;2023-03-03T08:18:01;98100.19;;;8.07;78.43
21574;BME280;10948;48.706;9.258;2023-03-03T08:23:01;98102.88;;;7.86;78.55
21574;BME280;10948;48.706;9.258;2023-03-03T08:25:26;98101.25;;;7.83;79.18
21574;BME280;10948;48.706;9.258;2023-03-03T08:27:51;98100.53;;;7.61;78.53
21574;BME280;10948;48.706;9.258;2023-03-03T08:30:16;98095.59;;;7.55;76.33
21574;BME280;10948;48.706;9.258;2023-03-03T08:32:42;98090.78;;;7.86;76.19
21574;BME280;10948;48.706;9.258;2023-03-03T08:35:08;98095.75;;;12.27;65.68
21574;BME280;10948;48.706;9.258;2023-03-03T08:37:33;98090.16;;;11.77;56.14
21574;BME280;10948;48.706;9.258;2023-03-03T08:39:58;98090.53;;;12.27;54.31
21574;BME280;10948;48.706;9.258;2023-03-03T08:42:24;98090.56;;;13.08;53.13
21574;BME280;10948;48.706;9.258;2023-03-03T08:44:49;98088.34;;;15.94;48.57
21574;BME280;10948;48.706;9.258;2023-03-03T08:47:14;98091.06;;;15.82;45.56
21574;BME280;10948;48.706;9.258;2023-03-03T08:49:39;98096.41;;;17.54;43.59
21574;BME280;10948;48.706;9.258;2023-03-03T08:52:05;98090.75;;;16.19;44.11
21574;BME280;10948;48.706;9.258;2023-03-03T08:54:31;98087.81;;;16.68;41.92
21574;BME280;10948;48.706;9.258;2023-03-03T08:56:56;98091.16;;;19.34;41.20
21574;BME280;10948;48.706;9.258;2023-03-03T08:59:22;98088.13;;;16.74;41.76
21574;BME280;10948;48.706;9.258;2023-03-03T09:01:47;98099.13;;;14.25;45.06
21574;BME280;10948;48.706;9.258;2023-03-03T09:04:12;98104.72;;;13.18;48.66
21574;BME280;10948;48.706;9.258;2023-03-03T09:06:44;98113.44;;;12.22;50.08
21574;BME280;10948;48.706;9.258;2023-03-03T09:09:09;98116.72;;;12.53;50.54
21574;BME280;10948;48.706;9.258;2023-03-03T09:11:35;98116.31;;;11.89;52.35
21574;BME280;10948;48.706;9.258;2023-03-03T09:14:10;98115.22;;;10.74;54.73
21574;BME280;10948;48.706;9.258;2023-03-03T09:16:40;98123.88;;;10.90;56.81
21574;BME280;10948;48.706;9.258;2023-03-03T09:22:25;98108.41;;;10.87;57.49
21574;BME280;10948;48.706;9.258;2023-03-03T09:24:53;98116.34;;;10.55;58.37
21574;BME280;10948;48.706;9.258;2023-03-03T09:29:44;98120.84;;;10.51;58.79
21574;BME280;10948;48.706;9.258;2023-03-03T09:32:19;98125.75;;;10.57;58.82
21574;BME280;10948;48.706;9.258;2023-03-03T09:34:46;98133.84;;;10.82;58.14
21574;BME280;10948;48.706;9.258;2023-03-03T09:39:37;98120.19;;;10.63;59.04
21574;BME280;10948;48.706;9.258;2023-03-03T09:42:11;98120.41;;;11.20;58.36
21574;BME280;10948;48.706;9.258;2023-03-03T09:49:42;98128.34;;;11.92;56.59
21574;BME280;10948;48.706;9.258;2023-03-03T09:52:19;98125.50;;;11.67;56.14
21574;BME280;10948;48.706;9.258;2023-03-03T09:54:54;98117.25;;;12.72;54.09
21574;BME280;10948;48.706;9.258;2023-03-03T09:57:26;98113.19;;;12.26;54.65
21574;BME280;10948;48.706;9.258;2023-03-03T10:12:47;98124.25;;;12.58;53.10
21574;BME280;10948;48.706;9.258;2023-03-03T10:15:24;98122.22;;;13.69;51.29
21574;BME280;10948;48.706;9.258;2023-03-03T10:20:22;98124.81;;;12.07;54.74
21574;BME280;10948;48.706;9.258;2023-03-03T10:23:01;98124.91;;;12.05;54.98
21574;BME280;10948;48.706;9.258;2023-03-03T10:25:39;98121.47;;;12.19;54.89
21574;BME280;10948;48.706;9.258;2023-03-03T10:33:40;98129.56;;;12.42;54.44
21574;BME280;10948;48.706;9.258;2023-03-03T10:38:53;98129.56;;;13.11;51.54
21574;BME280;10948;48.706;9.258;2023-03-03T10:44:03;98127.13;;;12.25;51.99
21574;BME280;10948;48.706;9.258;2023-03-03T10:46:35;98125.53;;;13.19;52.27
21574;BME280;10948;48.706;9.258;2023-03-03T10:54:26;98113.44;;;14.45;48.67
21574;BME280;10948;48.706;9.258;2023-03-03T11:01:56;98113.09;;;13.23;50.02
21574;BME280;10948;48.706;9.258;2023-03-03T11:12:11;98109.72;;;13.21;51.53
21574;BME280;10948;48.706;9.258;2023-03-03T11:14:42;98111.53;;;13.33;50.74
21574;BME280;10948;48.706;9.258;2023-03-03T11:20:07;98117.47;;;13.49;51.08
21574;BME280;10948;48.706;9.258;2023-03-03T11:22:48;98121.56;;;12.86;51.14
21574;BME280;10948;48.706;9.258;2023-03-03T11:27:54;98126.47;;;12.64;52.40
21574;BME280;10948;48.706;9.258;2023-03-03T11:33:06;98134.31;;;12.64;52.65
21574;BME280;10948;48.706;9.258;2023-03-03T11:35:40;98129.25;;;12.61;52.76
21574;BME280;10948;48.706;9.258;2023-03-03T11:45:52;98124.81;;;13.30;51.92
21574;BME280;10948;48.706;9.258;2023-03-03T11:48:23;98126.63;;;13.42;51.30
21574;BME280;10948;48.706;9.258;2023-03-03T11:51:01;98117.78;;;13.69;50.86
21574;BME280;10948;48.706;9.258;2023-03-03T11:53:31;98123.69;;;14.10;49.97
21574;BME280;10948;48.706;9.258;2023-03-03T11:56:05;98109.34;;;15.49;48.01
21574;BME280;10948;48.706;9.258;2023-03-03T11:58:38;98107.16;;;14.10;47.94
21574;BME280;10948;48.706;9.258;2023-03-03T12:06:39;98097.53;;;15.89;45.67
21574;BME280;10948;48.706;9.258;2023-03-03T12:09:23;98095.88;;;17.60;43.93
21574;BME280;10948;48.706;9.258;2023-03-03T12:11:52;98091.25;;;16.57;43.40
21574;BME280;10948;48.706;9.258;2023-03-03T12:17:00;98088.47;;;16.26;43.96
21574;BME280;10948;48.706;9.258;2023-03-03T12:19:30;98094.41;;;16.93;43.58
21574;BME280;10948;48.706;9.258;2023-03-03T12:22:12;98093.25;;;16.87;43.08
21574;BME280;10948;48.706;9.258;2023-03-03T12:29:46;98086.59;;;17.14;43.32
21574;BME280;10948;48.706;9.258;2023-03-03T12:34:57;98090.50;;;17.41;42.80
21574;BME280;10948;48.706;9.258;2023-03-03T12:50:19;98080.63;;;17.54;42.50
21574;BME280;10948;48.706;9.258;2023-03-03T12:52:53;98070.72;;;17.15;41.83
21574;BME280;10948;48.706;9.258;2023-03-03T13:10:26;98069.53;;;15.55;45.82
21574;BME280;10948;48.706;9.258;2023-03-03T13:15:34;98066.50;;;16.05;44.74
21574;BME280;10948;48.706;9.258;2023-03-03T13:23:07;98073.88;;;14.73;46.79
21574;BME280;10948;48.706;9.258;2023-03-03T13:25:39;98067.84;;;15.07;46.77
21574;BME280;10948;48.706;9.258;2023-03-03T13:30:49;98063.63;;;14.09;47.86
21574;BME280;10948;48.706;9.258;2023-03-03T13:36:21;98055.63;;;14.95;46.30
21574;BME280;10948;48.706;9.258;2023-03-03T13:38:47;98063.09;;;14.65;46.59
21574;BME280;10948;48.706;9.258;2023-03-03T13:43:45;98056.81;;;14.67;47.04
21574;BME280;10948;48.706;9.258;2023-03-03T14:10:23;98042.88;;;13.81;46.84
21574;BME280;10948;48.706;9.258;2023-03-03T14:17:54;98041.63;;;13.61;47.97
21574;BME280;10948;48.706;9.258;2023-03-03T14:20:30;98033.47;;;14.16;47.01
21574;BME280;10948;48.706;9.258;2023-03-03T14:23:40;98030.72;;;14.30;47.37
21574;BME280;10948;48.706;9.258;2023-03-03T14:28:48;98031.91;;;13.51;48.78
21574;BME280;10948;48.706;9.258;2023-03-03T14:33:42;98028.88;;;13.57;49.10
21574;BME280;10948;48.706;9.258;2023-03-03T14:36:10;98035.75;;;13.33;49.26
21574;BME280;10948;48.706;9.258;2023-03-03T14:38:37;98034.94;;;13.45;48.64
21574;BME280;10948;48.706;9.258;2023-03-03T14:43:35;98029.06;;;13.29;48.91
21574;BME280;10948;48.706;9.258;2023-03-03T14:48:56;98033.63;;;13.25;49.98
21574;BME280;10948;48.706;9.258;2023-03-03T14:53:47;98027.66;;;12.58;49.99
21574;BME280;10948;48.706;9.258;2023-03-03T14:56:25;98030.44;;;12.55;50.60
21574;BME280;10948;48.706;9.258;2023-03-03T14:58:52;98027.78;;;12.42;51.07
21574;BME280;10948;48.706;9.258;2023-03-03T15:01:22;98033.41;;;12.63;51.44
21574;BME280;10948;48.706;9.258;2023-03-03T15:11:49;98032.41;;;12.11;51.38
21574;BME280;10948;48.706;9.258;2023-03-03T15:14:15;98028.66;;;12.01;51.79
21574;BME280;10948;48.706;9.258;2023-03-03T15:16:42;98030.63;;;11.97;52.58
21574;BME280;10948;48.706;9.258;2023-03-03T15:21:52;98024.03;;;11.64;52.27
21574;BME280;10948;48.706;9.258;2023-03-03T15:24:25;98018.41;;;11.56;53.27
21574;BME280;10948;48.706;9.258;2023-03-03T15:29:25;98019.94;;;11.44;53.88
21574;BME280;10948;48.706;9.258;2023-03-03T15:37:14;98018.84;;;11.05;54.51
21574;BME280;10948;48.706;9.258;2023-03-03T15:42:36;98027.25;;;11.10;54.11
21574;BME280;10948;48.706;9.258;2023-03-03T15:52:46;98021.25;;;10.78;55.51
21574;BME280;10948;48.706;9.258;2023-03-03T16:00:28;98022.78;;;10.67;56.64
21574;BME280;10948;48.706;9.258;2023-03-03T16:02:56;98018.59;;;10.49;56.32
21574;BME280;10948;48.706;9.258;2023-03-03T16:07:57;98031.13;;;10.58;57.23
21574;BME280;10948;48.706;9.258;2023-03-03T16:22:40;98044.78;;;10.15;58.44
21574;BME280;10948;48.706;9.258;2023-03-03T16:25:18;98043.03;;;10.16;58.51
21574;BME280;10948;48.706;9.258;2023-03-03T16:27:52;98044.97;;;10.12;58.75
21574;BME280;10948;48.706;9.258;2023-03-03T16:35:53;98042.38;;;9.95;59.47
21574;BME280;10948;48.706;9.258;2023-03-03T16:41:20;98060.63;;;9.78;60.12
21574;BME280;10948;48.706;9.258;2023-03-03T16:46:20;98058.22;;;9.58;61.15
21574;BME280;10948;48.706;9.258;2023-03-03T16:48:50;98072.44;;;9.34;61.33
21574;BME280;10948;48.706;9.258;2023-03-03T16:54:00;98073.38;;;9.33;62.01
21574;BME280;10948;48.706;9.258;2023-03-03T16:56:42;98075.34;;;9.28;61.79
21574;BME280;10948;48.706;9.258;2023-03-03T17:01:39;98085.25;;;9.03;63.45
21574;BME280;10948;48.706;9.258;2023-03-03T17:09:42;98089.34;;;8.90;63.87
21574;BME280;10948;48.706;9.258;2023-03-03T17:15:05;98089.00;;;8.62;64.85
21574;BME280;10948;48.706;9.258;2023-03-03T17:25:33;98105.44;;;8.44;66.14
21574;BME280;10948;48.706;9.258;2023-03-03T17:33:01;98113.00;;;8.10;68.57
21574;BME280;10948;48.706;9.258;2023-03-03T17:38:13;98114.59;;;7.94;69.44
21574;BME280;10948;48.706;9.258;2023-03-03T17:43:13;98117.94;;;7.96;70.66
21574;BME280;10948;48.706;9.258;2023-03-03T17:45:40;98124.06;;;7.75;71.21
21574;BME280;10948;48.706;9.258;2023-03-03T17:50:44;98131.38;;;7.26;74.38
21574;BME280;10948;48.706;9.258;2023-03-03T17:56:00;98139.34;;;7.21;75.70
21574;BME280;10948;48.706;9.258;2023-03-03T18:08:54;98160.13;;;6.98;77.64
21574;BME280;10948;48.706;9.258;2023-03-03T18:19:11;98168.81;;;6.30;81.05
21574;BME280;10948;48.706;9.258;2023-03-03T18:21:48;98168.91;;;6.27;82.21
21574;BME280;10948;48.706;9.258;2023-03-03T18:26:49;98174.94;;;6.27;82.31
21574;BME280;10948;48.706;9.258;2023-03-03T18:36:50;98176.31;;;5.64;86.26